Dallas-Fort Worth International Airport (DFW/KDFW)




Flight Aircraft Arriving
CPX2297 B744
B763
KSDF - Louisville International Airport-Standiford Field
United StatesKentucky Louisville, Kentucky
Flight Aircraft Departing
CPX2294 B744
B763
KSDF - Louisville International Airport-Standiford Field
United StatesKentucky Louisville, Kentucky
Airport Information
Location: Dallas, US
Coordinates: 32.8972 / -97.0377
Elevation:
Time Offset:
Local Time:
UTC Time:
Jet A Price: $0.79/lbs

Current Weather
METAR: KDFW 052153Z 26006KT 10SM TS SCT047CB BKN055 BKN180 BKN210 34/24 A2980 RMK AO2 LTG DSNT NE AND E TSE27B31 SLP080 OCNL LTGCG NE SHRA N NE-E TS NE MOV SE T03390239 $
TAF: KDFW 052057Z 0521/0624 06008KT P6SM VCTS SCT060CB BKN250 FM060000 04006KT P6SM FEW060 BKN250 FM061500 05006KT P6SM VCTS BKN060CB FM062300 06007KT P6SM BKN060 OVC250

Recent Arrivals
Date Flight Type Depart
Recent Departures
Date Flight Type Arrive